sensor_id;sensor_type;location;lat;lon;timestamp;pressure;altitude;pressure_sealevel;temperature;humidity
37170;BME280;23062;13.952;100.608;2022-12-07T12:41:07;1010.53;;;31.22;58.13
37170;BME280;23062;13.952;100.608;2022-12-07T12:45:35;1010.59;;;31.26;58.37
37170;BME280;23062;13.952;100.608;2022-12-07T12:54:34;1010.73;;;31.44;57.33
37170;BME280;23062;13.952;100.608;2022-12-07T12:59:19;1010.83;;;31.48;57.20
37170;BME280;23062;13.952;100.608;2022-12-07T13:03:53;1010.85;;;31.48;57.05
37170;BME280;23062;13.952;100.608;2022-12-07T13:08:24;1010.89;;;31.48;57.08
37170;BME280;23062;13.952;100.608;2022-12-07T13:26:51;1011.13;;;31.43;57.24
37170;BME280;23062;13.952;100.608;2022-12-07T13:35:54;1011.30;;;31.39;57.00
37170;BME280;23062;13.952;100.608;2022-12-07T13:40:21;1011.30;;;31.37;57.03
37170;BME280;23062;13.952;100.608;2022-12-07T13:44:47;1011.26;;;31.36;57.18
37170;BME280;23062;13.952;100.608;2022-12-07T13:49:25;1011.37;;;31.34;56.86
37170;BME280;23062;13.952;100.608;2022-12-07T13:53:55;1011.48;;;31.34;56.96
37170;BME280;23062;13.952;100.608;2022-12-07T13:58:21;1011.49;;;31.31;57.21
37170;BME280;23062;13.952;100.608;2022-12-07T14:03:00;1011.58;;;31.32;57.37
37170;BME280;23062;13.952;100.608;2022-12-07T14:07:29;1011.61;;;31.31;57.30
37170;BME280;23062;13.952;100.608;2022-12-07T14:11:55;1011.64;;;31.30;57.35
37170;BME280;23062;13.952;100.608;2022-12-07T14:16:34;1011.66;;;31.29;57.55
37170;BME280;23062;13.952;100.608;2022-12-07T14:21:21;1011.74;;;31.29;57.28
37170;BME280;23062;13.952;100.608;2022-12-07T14:26:18;1011.85;;;31.29;57.29
37170;BME280;23062;13.952;100.608;2022-12-07T14:30:38;1011.90;;;31.29;57.35
37170;BME280;23062;13.952;100.608;2022-12-07T14:35:11;1011.90;;;31.27;57.30
37170;BME280;23062;13.952;100.608;2022-12-07T14:39:36;1011.86;;;31.26;57.26
37170;BME280;23062;13.952;100.608;2022-12-07T14:44:01;1011.88;;;31.24;57.29
37170;BME280;23062;13.952;100.608;2022-12-07T14:48:26;1011.88;;;31.24;57.30
37170;BME280;23062;13.952;100.608;2022-12-07T14:52:57;1011.86;;;31.22;57.04
37170;BME280;23062;13.952;100.608;2022-12-07T14:57:21;1011.79;;;31.22;57.30
37170;BME280;23062;13.952;100.608;2022-12-07T15:01:46;1011.82;;;31.21;57.42
37170;BME280;23062;13.952;100.608;2022-12-07T15:06:16;1011.85;;;31.20;57.73
37170;BME280;23062;13.952;100.608;2022-12-07T15:10:41;1011.89;;;31.21;57.81
37170;BME280;23062;13.952;100.608;2022-12-07T15:15:07;1011.90;;;31.19;57.83
37170;BME280;23062;13.952;100.608;2022-12-07T15:19:32;1011.92;;;31.18;57.86
37170;BME280;23062;13.952;100.608;2022-12-07T15:23:57;1011.94;;;31.17;57.82
37170;BME280;23062;13.952;100.608;2022-12-07T15:28:22;1011.93;;;31.14;56.80
37170;BME280;23062;13.952;100.608;2022-12-07T15:32:51;1011.95;;;31.15;57.21
37170;BME280;23062;13.952;100.608;2022-12-07T15:37:16;1011.97;;;31.16;57.53
37170;BME280;23062;13.952;100.608;2022-12-07T15:41:41;1011.92;;;31.14;57.73
37170;BME280;23062;13.952;100.608;2022-12-07T15:46:06;1011.92;;;31.13;57.81
37170;BME280;23062;13.952;100.608;2022-12-07T15:50:31;1011.92;;;31.13;57.97
37170;BME280;23062;13.952;100.608;2022-12-07T15:54:56;1011.90;;;31.12;58.02
37170;BME280;23062;13.952;100.608;2022-12-07T15:59:23;1011.86;;;31.11;58.08
37170;BME280;23062;13.952;100.608;2022-12-07T16:03:49;1011.84;;;31.10;58.06
37170;BME280;23062;13.952;100.608;2022-12-07T16:08:13;1011.85;;;31.10;58.08
37170;BME280;23062;13.952;100.608;2022-12-07T16:12:39;1011.79;;;31.09;57.98
37170;BME280;23062;13.952;100.608;2022-12-07T16:17:04;1011.74;;;31.08;57.85
37170;BME280;23062;13.952;100.608;2022-12-07T16:21:30;1011.70;;;31.07;57.70
37170;BME280;23062;13.952;100.608;2022-12-07T16:25:54;1011.65;;;31.07;57.59
37170;BME280;23062;13.952;100.608;2022-12-07T16:30:20;1011.63;;;31.06;57.37
37170;BME280;23062;13.952;100.608;2022-12-07T16:34:45;1011.59;;;31.04;57.21
37170;BME280;23062;13.952;100.608;2022-12-07T16:39:10;1011.59;;;31.04;57.11
37170;BME280;23062;13.952;100.608;2022-12-07T16:43:35;1011.62;;;31.04;57.05
37170;BME280;23062;13.952;100.608;2022-12-07T16:48:01;1011.62;;;31.04;56.93
37170;BME280;23062;13.952;100.608;2022-12-07T16:52:26;1011.58;;;31.04;56.93
37170;BME280;23062;13.952;100.608;2022-12-07T16:56:53;1011.59;;;31.03;56.78
37170;BME280;23062;13.952;100.608;2022-12-07T17:01:20;1011.56;;;31.02;56.69
37170;BME280;23062;13.952;100.608;2022-12-07T17:05:48;1011.56;;;31.01;56.53
37170;BME280;23062;13.952;100.608;2022-12-07T17:10:12;1011.53;;;31.00;56.51
37170;BME280;23062;13.952;100.608;2022-12-07T17:14:37;1011.54;;;31.00;56.54
37170;BME280;23062;13.952;100.608;2022-12-07T17:19:20;1011.48;;;31.00;56.51
37170;BME280;23062;13.952;100.608;2022-12-07T17:23:44;1011.50;;;30.99;56.49
37170;BME280;23062;13.952;100.608;2022-12-07T17:28:09;1011.48;;;30.99;56.43
37170;BME280;23062;13.952;100.608;2022-12-07T17:32:34;1011.46;;;30.98;56.40
37170;BME280;23062;13.952;100.608;2022-12-07T17:36:59;1011.43;;;30.96;56.35
37170;BME280;23062;13.952;100.608;2022-12-07T17:41:28;1011.43;;;30.95;56.33
37170;BME280;23062;13.952;100.608;2022-12-07T17:46:10;1011.43;;;30.96;56.31
37170;BME280;23062;13.952;100.608;2022-12-07T17:50:35;1011.30;;;30.95;56.33
37170;BME280;23062;13.952;100.608;2022-12-07T17:55:17;1011.23;;;30.95;56.35
37170;BME280;23062;13.952;100.608;2022-12-07T17:59:44;1011.18;;;30.93;56.44
37170;BME280;23062;13.952;100.608;2022-12-07T18:04:09;1011.13;;;30.92;56.48
37170;BME280;23062;13.952;100.608;2022-12-07T18:08:36;1011.14;;;30.91;56.43
37170;BME280;23062;13.952;100.608;2022-12-07T18:17:42;1011.00;;;30.91;56.37
37170;BME280;23062;13.952;100.608;2022-12-07T18:22:07;1010.93;;;30.89;56.41
37170;BME280;23062;13.952;100.608;2022-12-07T18:26:33;1010.91;;;30.89;56.40
37170;BME280;23062;13.952;100.608;2022-12-07T18:31:01;1010.84;;;30.88;56.45
37170;BME280;23062;13.952;100.608;2022-12-07T18:35:25;1010.84;;;30.88;56.56
37170;BME280;23062;13.952;100.608;2022-12-07T18:39:50;1010.83;;;30.87;56.80
37170;BME280;23062;13.952;100.608;2022-12-07T18:44:15;1010.84;;;30.86;56.84
37170;BME280;23062;13.952;100.608;2022-12-07T18:48:40;1010.78;;;30.86;56.84
37170;BME280;23062;13.952;100.608;2022-12-07T18:53:06;1010.67;;;30.83;56.64
37170;BME280;23062;13.952;100.608;2022-12-07T18:57:33;1010.60;;;30.83;56.58
37170;BME280;23062;13.952;100.608;2022-12-07T19:01:58;1010.50;;;30.82;56.55
37170;BME280;23062;13.952;100.608;2022-12-07T19:06:23;1010.41;;;30.81;56.40
37170;BME280;23062;13.952;100.608;2022-12-07T19:10:47;1010.36;;;30.82;56.37
37170;BME280;23062;13.952;100.608;2022-12-07T19:15:13;1010.30;;;30.81;56.45
37170;BME280;23062;13.952;100.608;2022-12-07T19:19:43;1010.23;;;30.79;56.48
37170;BME280;23062;13.952;100.608;2022-12-07T19:24:09;1010.16;;;30.79;56.47
37170;BME280;23062;13.952;100.608;2022-12-07T19:28:34;1010.12;;;30.78;56.48
37170;BME280;23062;13.952;100.608;2022-12-07T19:32:58;1010.09;;;30.77;56.44
37170;BME280;23062;13.952;100.608;2022-12-07T19:37:23;1010.07;;;30.76;56.46
37170;BME280;23062;13.952;100.608;2022-12-07T19:41:48;1010.02;;;30.75;56.55
37170;BME280;23062;13.952;100.608;2022-12-07T19:46:13;1010.02;;;30.74;56.63
37170;BME280;23062;13.952;100.608;2022-12-07T19:50:39;1009.98;;;30.72;56.77
37170;BME280;23062;13.952;100.608;2022-12-07T19:55:04;1009.96;;;30.66;56.74
37170;BME280;23062;13.952;100.608;2022-12-07T19:59:29;1009.98;;;30.59;56.44
37170;BME280;23062;13.952;100.608;2022-12-07T20:03:54;1010.03;;;30.52;55.98
37170;BME280;23062;13.952;100.608;2022-12-07T20:08:19;1010.03;;;30.46;56.28
37170;BME280;23062;13.952;100.608;2022-12-07T20:12:44;1009.97;;;30.45;55.91
37170;BME280;23062;13.952;100.608;2022-12-07T20:17:27;1009.91;;;30.45;56.04
37170;BME280;23062;13.952;100.608;2022-12-07T20:21:52;1009.85;;;30.38;55.92
37170;BME280;23062;13.952;100.608;2022-12-07T20:26:17;1009.83;;;30.32;55.72
37170;BME280;23062;13.952;100.608;2022-12-07T20:30:52;1009.83;;;30.23;55.76
37170;BME280;23062;13.952;100.608;2022-12-07T20:35:17;1009.82;;;30.18;55.97
37170;BME280;23062;13.952;100.608;2022-12-07T20:39:42;1009.82;;;30.11;56.17
37170;BME280;23062;13.952;100.608;2022-12-07T20:44:07;1009.78;;;30.01;56.47
37170;BME280;23062;13.952;100.608;2022-12-07T20:48:32;1009.77;;;30.03;56.36
37170;BME280;23062;13.952;100.608;2022-12-07T20:52:57;1009.81;;;30.00;56.70
37170;BME280;23062;13.952;100.608;2022-12-07T20:57:22;1009.85;;;29.96;56.51
37170;BME280;23062;13.952;100.608;2022-12-07T21:01:46;1009.86;;;29.94;56.36
37170;BME280;23062;13.952;100.608;2022-12-07T21:06:15;1009.80;;;29.91;56.82
37170;BME280;23062;13.952;100.608;2022-12-07T21:10:40;1009.77;;;29.88;56.74
37170;BME280;23062;13.952;100.608;2022-12-07T21:15:08;1009.70;;;29.83;56.60
37170;BME280;23062;13.952;100.608;2022-12-07T21:19:32;1009.69;;;29.80;56.62
37170;BME280;23062;13.952;100.608;2022-12-07T21:23:58;1009.74;;;29.74;56.69
37170;BME280;23062;13.952;100.608;2022-12-07T21:28:23;1009.76;;;29.68;57.06
37170;BME280;23062;13.952;100.608;2022-12-07T21:32:47;1009.82;;;29.65;58.10
37170;BME280;23062;13.952;100.608;2022-12-07T21:37:12;1009.78;;;29.60;58.70
37170;BME280;23062;13.952;100.608;2022-12-07T21:41:37;1009.78;;;29.58;59.27
37170;BME280;23062;13.952;100.608;2022-12-07T21:46:02;1009.80;;;29.54;59.81
37170;BME280;23062;13.952;100.608;2022-12-07T21:50:26;1009.78;;;29.46;59.83
37170;BME280;23062;13.952;100.608;2022-12-07T21:54:51;1009.72;;;29.41;59.32
37170;BME280;23062;13.952;100.608;2022-12-07T21:59:16;1009.75;;;29.38;58.74
37170;BME280;23062;13.952;100.608;2022-12-07T22:03:43;1009.80;;;29.47;58.25
37170;BME280;23062;13.952;100.608;2022-12-07T22:08:08;1009.77;;;29.47;57.67
37170;BME280;23062;13.952;100.608;2022-12-07T22:12:33;1009.70;;;29.42;58.18
37170;BME280;23062;13.952;100.608;2022-12-07T22:16:58;1009.71;;;29.41;59.88
37170;BME280;23062;13.952;100.608;2022-12-07T22:21:24;1009.75;;;29.27;60.52
37170;BME280;23062;13.952;100.608;2022-12-07T22:25:48;1009.82;;;29.19;60.69
37170;BME280;23062;13.952;100.608;2022-12-07T22:30:13;1009.90;;;29.08;60.94
37170;BME280;23062;13.952;100.608;2022-12-07T22:34:38;1010.01;;;29.04;61.20
37170;BME280;23062;13.952;100.608;2022-12-07T22:39:03;1010.06;;;29.13;60.80
37170;BME280;23062;13.952;100.608;2022-12-07T22:43:29;1010.05;;;29.18;60.29
37170;BME280;23062;13.952;100.608;2022-12-07T22:47:53;1010.08;;;29.21;60.27
37170;BME280;23062;13.952;100.608;2022-12-07T22:52:18;1010.07;;;29.35;60.15
37170;BME280;23062;13.952;100.608;2022-12-07T22:56:44;1010.15;;;29.51;59.61
37170;BME280;23062;13.952;100.608;2022-12-07T23:01:10;1010.16;;;29.58;58.99
37170;BME280;23062;13.952;100.608;2022-12-07T23:05:41;1010.26;;;29.62;58.78
37170;BME280;23062;13.952;100.608;2022-12-07T23:10:07;1010.41;;;29.64;58.41
37170;BME280;23062;13.952;100.608;2022-12-07T23:14:36;1010.44;;;29.63;58.09
37170;BME280;23062;13.952;100.608;2022-12-07T23:19:01;1010.44;;;29.62;58.02
37170;BME280;23062;13.952;100.608;2022-12-07T23:23:26;1010.48;;;29.61;57.88
37170;BME280;23062;13.952;100.608;2022-12-07T23:27:52;1010.48;;;29.60;58.02
37170;BME280;23062;13.952;100.608;2022-12-07T23:32:18;1010.55;;;29.62;58.37
37170;BME280;23062;13.952;100.608;2022-12-07T23:36:44;1010.50;;;29.59;58.12
37170;BME280;23062;13.952;100.608;2022-12-07T23:41:12;1010.48;;;29.56;57.80
37170;BME280;23062;13.952;100.608;2022-12-07T23:45:38;1010.50;;;29.57;57.93
37170;BME280;23062;13.952;100.608;2022-12-07T23:50:03;1010.50;;;29.54;57.86
37170;BME280;23062;13.952;100.608;2022-12-07T23:54:28;1010.51;;;29.53;57.63
37170;BME280;23062;13.952;100.608;2022-12-07T23:58:54;1010.58;;;29.54;57.94
